Aeroporto :
LOGIN :

Iscrizione | Disclaimer

   EN    FR    IT 

 










Sommario :    VFR   VFR Marginale   IFR   IFR Intensivo   IFR Molto Intensivo
Visibilità : 
Base nubi : 
>= 8 km
>= 3000ft
5 / 8 km
1000 / 3000 ft
1500m / 5 km
500 / 1000 ft
800 / 1500m
200 / 500 ft
< 800m
< 200 ft
Simboli :   Temporali  Nebbia  Neve Forte  Precipitazioni Forti  Vento > 20 kt
SIGMETs :   Varie  Temporali  Ghiacco  Turbolenza  Onda orograficha  Ceneri Vulcaniche






- Altitudine del aeroporto : 336 ft
- Codice IATA : GCI


EGJB - Guernsey

ULTIMO METAR :
  • 111350Z 36007KT 310V030 9999 FEW030 18/08 Q1028

METARs OBSOLETI :
  • 111320Z 34006KT 310V010 9999 FEW029 17/09 Q1028
  • 111250Z VRB04KT 9999 FEW025 16/11 Q1028
  • 111220Z 09004KT 030V150 9999 FEW025 18/10 Q1028
  • 111150Z 08005KT 030V170 9999 FEW025 18/09 Q1028
  • 111120Z 08007KT 050V120 9999 FEW025 18/10 Q1028
  • 111050Z 07005KT 350V120 9999 FEW024 17/10 Q1028

TAF TAF EGJB
Valido dal 11 a 12 ore il 11 a 21 ore UTC


111058Z 1112/1121 05005KT 9999 FEW028
ATIS : +44 1481 238 957



MetMap, La meteo Aeronautica in un colpo d'occhio ! - Copyright ORBIFLY Dicembre 2007 - Disclaimer

ORBIFLY MET'MAP TEAM :

Programmazione e sviluppo : Alexandra Zaïnal
Concezione : Baudouin d'Aumeries
Aiuto per la programmazione : Marc-Olivier Méhu
Supporto tecnico e logistico : Manuel Goepfert
Aiuto per la traduzione : Arnaldo La Scala

Contatto : metmap@orbifly.com




FONTI E CREDITI :

   NOAA